Time;durP1;ratioP1;P1;durP2;ratioP2;P2;SDS_P1;SDS_P2;PMS_P1;PMS_P2;Temp;Humidity;BMP_temperature;BMP_pressure;BME280_temperature;BME280_humidity;BME280_pressure;Samples;Min_cycle;Max_cycle;Signal;HPM_P1;HPM_P2
2021/08/28 00:01:16;;;;;;;2.30;1.40;;;21.20;47.00;;;;;;6248591;28;20382;-75
2021/08/28 00:04:17;;;;;;;2.55;1.60;;;21.10;47.20;;;;;;6231586;28;20033;-75
2021/08/28 00:07:18;;;;;;;2.67;1.35;;;21.10;47.40;;;;;;6248362;28;20099;-77
2021/08/28 00:10:19;;;;;;;2.05;1.50;;;21.00;47.50;;;;;;6249972;28;20033;-74
2021/08/28 00:13:20;;;;;;;2.15;1.15;;;21.00;47.50;;;;;;6248186;28;20486;-74
2021/08/28 00:16:21;;;;;;;2.78;1.58;;;21.00;47.50;;;;;;6249942;28;20375;-74
2021/08/28 00:19:21;;;;;;;5.75;2.00;;;21.00;47.50;;;;;;6248807;28;20478;-74
2021/08/28 00:22:22;;;;;;;2.42;1.40;;;21.00;47.40;;;;;;6248601;28;20041;-74
2021/08/28 00:25:23;;;;;;;2.55;1.52;;;21.00;47.30;;;;;;6225707;28;20088;-74
2021/08/28 00:28:24;;;;;;;3.00;1.85;;;21.00;47.30;;;;;;6249085;28;20041;-75
2021/08/28 00:31:25;;;;;;;2.78;1.50;;;21.00;47.20;;;;;;6224806;28;20135;-74
2021/08/28 00:34:26;;;;;;;4.00;1.42;;;21.00;47.20;;;;;;6225633;28;20418;-74
2021/08/28 00:37:27;;;;;;;4.30;1.75;;;21.00;47.20;;;;;;6237325;28;20048;-75
2021/08/28 00:40:28;;;;;;;3.70;1.35;;;21.00;47.40;;;;;;6248550;28;20037;-75
2021/08/28 00:43:29;;;;;;;4.55;1.45;;;20.90;47.40;;;;;;6248265;28;20033;-74
2021/08/28 00:46:30;;;;;;;2.08;1.30;;;20.90;47.50;;;;;;6250992;28;20394;-75
2021/08/28 00:49:31;;;;;;;2.60;1.63;;;20.90;47.40;;;;;;6229764;28;20033;-75
2021/08/28 00:52:34;;;;;;;2.10;1.33;;;20.90;47.40;;;;;;6247745;28;20108;-74
2021/08/28 00:55:40;;;;;;;3.83;1.95;;;20.90;47.40;;;;;;6249167;28;20042;-74
2021/08/28 00:58:42;;;;;;;2.55;1.50;;;20.90;47.40;;;;;;6230781;28;20040;-75
2021/08/28 01:01:45;;;;;;;2.45;1.42;;;20.90;47.40;;;;;;6225250;28;20033;-75
2021/08/28 01:04:51;;;;;;;3.05;1.60;;;20.90;47.40;;;;;;6247711;28;20055;-75
2021/08/28 01:08:09;;;;;;;3.17;1.55;;;20.90;47.50;;;;;;6248078;28;20030;-75
2021/08/28 01:11:59;;;;;;;2.67;1.60;;;20.80;47.60;;;;;;6146768;28;20039;-75
2021/08/28 01:15:12;;;;;;;2.75;1.70;;;20.80;47.70;;;;;;6131541;28;20094;-75
2021/08/28 01:18:17;;;;;;;1.60;1.30;;;20.70;47.90;;;;;;6163642;28;20211;-75
2021/08/28 01:21:26;;;;;;;2.60;1.75;;;20.60;47.90;;;;;;6148009;28;20432;-75
2021/08/28 01:24:47;;;;;;;3.10;1.48;;;20.60;48.10;;;;;;6146207;28;20118;-75
2021/08/28 01:28:14;;;;;;;3.40;1.60;;;20.50;48.20;;;;;;6140426;28;20054;-74
2021/08/28 01:31:17;;;;;;;2.33;1.45;;;20.50;48.20;;;;;;6162871;28;20049;-74
2021/08/28 01:34:19;;;;;;;5.18;1.52;;;20.40;48.90;;;;;;6136507;28;20548;-75
2021/08/28 01:37:22;;;;;;;2.50;1.50;;;20.50;48.30;;;;;;6122214;29;20058;-74
2021/08/28 01:40:33;;;;;;;4.55;1.40;;;20.50;48.30;;;;;;6134351;28;20038;-75
2021/08/28 01:43:35;;;;;;;2.33;1.45;;;20.50;48.30;;;;;;6216978;28;20038;-74
2021/08/28 01:46:38;;;;;;;2.65;1.70;;;20.40;48.50;;;;;;6220347;28;20099;-75
2021/08/28 01:49:40;;;;;;;8.52;1.50;;;20.40;48.60;;;;;;6236388;28;20042;-75
2021/08/28 01:52:42;;;;;;;1.98;1.40;;;20.30;48.80;;;;;;6223591;28;20041;-75
2021/08/28 01:55:43;;;;;;;2.50;1.63;;;20.20;48.90;;;;;;6226205;28;20056;-75
2021/08/28 01:58:44;;;;;;;1.45;1.20;;;20.20;49.10;;;;;;6244749;28;20057;-75
2021/08/28 02:02:03;;;;;;;5.63;1.80;;;20.10;49.20;;;;;;6243088;28;20051;-75
2021/08/28 02:05:15;;;;;;;3.47;1.63;;;20.10;49.30;;;;;;6230156;28;20045;-75
2021/08/28 02:08:35;;;;;;;4.63;1.63;;;20.10;49.30;;;;;;6244939;28;20052;-75
2021/08/28 02:11:47;;;;;;;3.88;1.58;;;20.00;49.50;;;;;;6228376;28;20363;-75
2021/08/28 02:15:08;;;;;;;5.00;1.67;;;20.00;49.70;;;;;;6245206;28;20401;-75
2021/08/28 02:18:26;;;;;;;2.83;1.65;;;19.90;49.80;;;;;;6244741;28;20029;-75
2021/08/28 02:21:38;;;;;;;3.47;1.40;;;19.80;49.90;;;;;;6226272;28;20526;-75
2021/08/28 02:24:48;;;;;;;3.47;2.00;;;19.70;50.10;;;;;;6240793;28;20065;-74
2021/08/28 02:28:01;;;;;;;6.25;1.50;;;19.70;50.50;;;;;;6224899;28;20041;-75
2021/08/28 02:31:05;;;;;;;3.05;1.40;;;19.60;50.50;;;;;;6242103;28;20036;-75
2021/08/28 02:34:13;;;;;;;3.20;1.52;;;19.50;50.60;;;;;;6225385;28;20044;-74
2021/08/28 02:37:20;;;;;;;3.35;1.70;;;19.50;50.70;;;;;;6241664;28;20064;-74
2021/08/28 02:40:23;;;;;;;3.53;1.45;;;19.40;50.80;;;;;;6242545;28;20034;-75
2021/08/28 02:43:27;;;;;;;1.50;1.30;;;19.40;51.00;;;;;;6243860;28;20049;-75
2021/08/28 02:46:32;;;;;;;7.00;2.03;;;19.30;51.10;;;;;;6242743;28;20064;-75
2021/08/28 02:49:42;;;;;;;3.33;1.70;;;19.30;51.10;;;;;;6241477;28;20041;-75
2021/08/28 02:52:57;;;;;;;6.43;2.00;;;19.30;51.30;;;;;;6234260;28;20045;-75
2021/08/28 02:56:01;;;;;;;1.63;1.30;;;19.20;51.40;;;;;;6248867;28;20041;-75
2021/08/28 02:59:06;;;;;;;5.72;1.55;;;19.20;51.50;;;;;;6249874;28;20037;-75
2021/08/28 03:02:08;;;;;;;3.15;1.55;;;19.20;51.60;;;;;;6246974;28;20041;-75
2021/08/28 03:05:12;;;;;;;9.38;2.17;;;19.10;51.60;;;;;;6237120;28;20034;-74
2021/08/28 03:08:16;;;;;;;2.03;1.27;;;19.10;51.80;;;;;;6253271;28;20098;-74
2021/08/28 03:11:21;;;;;;;9.27;1.83;;;19.00;51.90;;;;;;6274516;28;20033;-74
2021/08/28 03:14:24;;;;;;;7.75;1.67;;;19.00;52.00;;;;;;6259067;28;20465;-74
2021/08/28 03:17:28;;;;;;;2.35;1.40;;;18.90;52.10;;;;;;6251056;28;20037;-75
2021/08/28 03:20:29;;;;;;;2.47;1.50;;;18.90;52.30;;;;;;6234196;28;20022;-76
2021/08/28 03:23:32;;;;;;;5.78;1.70;;;18.90;52.50;;;;;;6250355;28;20033;-75
2021/08/28 03:26:35;;;;;;;2.38;1.67;;;18.50;52.40;;;;;;6230474;28;20194;-75
2021/08/28 03:29:37;;;;;;;2.45;1.50;;;18.80;52.70;;;;;;6233635;28;20029;-75
2021/08/28 03:32:42;;;;;;;4.07;1.85;;;18.80;52.80;;;;;;6248774;28;20336;-75
2021/08/28 03:35:45;;;;;;;5.22;2.08;;;18.80;52.90;;;;;;6250023;28;20120;-75
2021/08/28 03:38:46;;;;;;;2.45;1.55;;;18.70;53.50;;;;;;6249032;28;20064;-75
2021/08/28 03:41:48;;;;;;;2.70;1.45;;;18.70;53.10;;;;;;6250023;28;20478;-75
2021/08/28 03:44:49;;;;;;;2.97;1.40;;;18.70;53.20;;;;;;6232372;28;20068;-75
2021/08/28 03:47:50;;;;;;;2.92;1.52;;;18.70;54.00;;;;;;6233361;28;20033;-75
2021/08/28 03:50:51;;;;;;;5.97;1.67;;;18.60;53.40;;;;;;6247019;28;20060;-75
2021/08/28 03:53:52;;;;;;;3.45;1.48;;;18.60;53.50;;;;;;6233401;28;20474;-75
2021/08/28 03:56:53;;;;;;;3.20;2.10;;;18.60;53.60;;;;;;6232101;28;20033;-75
2021/08/28 03:59:54;;;;;;;5.93;1.83;;;18.50;53.70;;;;;;6255891;28;20029;-75
2021/08/28 04:02:56;;;;;;;3.75;1.55;;;18.50;53.80;;;;;;6260220;28;20026;-75
2021/08/28 04:05:59;;;;;;;6.40;1.52;;;18.40;53.90;;;;;;6249379;28;20056;-75
2021/08/28 04:09:02;;;;;;;3.55;1.70;;;18.40;54.00;;;;;;6233558;28;20029;-75
2021/08/28 04:12:03;;;;;;;3.60;2.10;;;18.30;54.00;;;;;;6250663;28;20045;-75
2021/08/28 04:15:07;;;;;;;4.47;1.70;;;18.30;54.20;;;;;;6248608;28;20459;-74
2021/08/28 04:18:27;;;;;;;5.72;2.15;;;18.30;54.30;;;;;;6246913;28;20040;-75
2021/08/28 04:21:36;;;;;;;5.40;2.28;;;18.20;54.40;;;;;;6245623;28;20438;-74
2021/08/28 04:24:38;;;;;;;5.50;2.00;;;18.20;54.60;;;;;;6231171;28;20056;-75
2021/08/28 04:27:59;;;;;;;3.47;2.13;;;18.20;54.70;;;;;;6247176;28;20045;-75
2021/08/28 04:31:05;;;;;;;4.32;2.10;;;18.30;54.70;;;;;;6231625;28;20038;-75
2021/08/28 04:34:06;;;;;;;3.60;1.50;;;18.30;54.70;;;;;;6246075;28;20365;-75
2021/08/28 04:37:07;;;;;;;4.63;2.05;;;18.30;54.50;;;;;;6246574;28;20087;-76
2021/08/28 04:40:11;;;;;;;3.17;1.95;;;18.30;54.50;;;;;;6230608;28;20037;-75
2021/08/28 04:43:12;;;;;;;3.00;1.60;;;18.40;54.50;;;;;;6245992;28;20147;-75
2021/08/28 04:46:33;;;;;;;2.13;1.40;;;18.40;54.40;;;;;;6233692;28;20052;-75
2021/08/28 04:49:36;;;;;;;4.65;2.00;;;18.30;54.20;;;;;;6245313;28;20026;-75
2021/08/28 04:52:56;;;;;;;2.28;1.48;;;18.30;54.30;;;;;;6246791;28;20037;-76
2021/08/28 04:56:00;;;;;;;2.75;1.63;;;18.30;54.40;;;;;;6247094;28;20087;-75
2021/08/28 04:59:01;;;;;;;3.45;1.70;;;18.30;54.30;;;;;;6229031;28;20363;-76
2021/08/28 05:02:17;;;;;;;3.97;1.60;;;18.30;54.20;;;;;;6247427;28;20034;-75
2021/08/28 05:05:30;;;;;;;7.00;1.90;;;18.30;54.80;;;;;;6245756;28;20045;-75
2021/08/28 05:08:31;;;;;;;3.97;1.75;;;18.30;54.20;;;;;;6247078;28;20119;-75
2021/08/28 05:11:32;;;;;;;3.22;1.98;;;18.20;54.30;;;;;;6246188;28;20029;-75
2021/08/28 05:14:37;;;;;;;4.13;1.60;;;18.20;54.50;;;;;;6245602;28;20037;-74
2021/08/28 05:17:42;;;;;;;3.60;1.50;;;18.20;54.60;;;;;;6245426;28;20063;-75
2021/08/28 05:20:42;;;;;;;5.00;1.90;;;18.10;54.60;;;;;;6245526;28;20037;-75
2021/08/28 05:24:02;;;;;;;4.15;1.75;;;18.00;54.70;;;;;;6247238;28;20374;-75
2021/08/28 05:27:14;;;;;;;3.95;1.75;;;18.10;54.90;;;;;;6230727;28;20068;-76
2021/08/28 05:30:15;;;;;;;7.45;2.00;;;18.00;54.90;;;;;;6246898;28;20038;-75
2021/08/28 05:33:16;;;;;;;4.15;1.95;;;18.00;54.90;;;;;;6245158;28;20029;-75
2021/08/28 05:36:17;;;;;;;8.23;2.22;;;18.00;54.80;;;;;;6245679;28;20040;-76
2021/08/28 05:39:37;;;;;;;5.22;1.70;;;18.00;54.90;;;;;;6244893;28;20065;-75
2021/08/28 05:42:37;;;;;;;7.57;2.00;;;18.10;54.90;;;;;;6245149;28;20040;-75
2021/08/28 05:45:38;;;;;;;3.30;1.58;;;18.10;54.90;;;;;;6223491;28;20119;-76
2021/08/28 05:48:39;;;;;;;3.95;1.80;;;18.10;54.90;;;;;;6228083;28;20030;-75
2021/08/28 05:51:50;;;;;;;7.07;2.45;;;18.00;54.90;;;;;;6229713;28;20049;-75
2021/08/28 05:54:51;;;;;;;2.88;1.88;;;18.00;55.00;;;;;;6221491;28;20425;-76
2021/08/28 05:57:52;;;;;;;2.80;1.90;;;18.00;55.10;;;;;;6243137;28;20407;-75
2021/08/28 06:00:52;;;;;;;2.70;1.40;;;17.90;55.20;;;;;;6270922;28;20072;-75
2021/08/28 06:03:53;;;;;;;6.65;2.08;;;17.90;55.30;;;;;;6234094;28;20063;-75
2021/08/28 06:07:14;;;;;;;3.42;1.75;;;18.00;55.50;;;;;;6248089;28;20038;-75
2021/08/28 06:10:18;;;;;;;3.75;1.70;;;17.90;55.30;;;;;;6245834;28;20037;-75
2021/08/28 06:13:39;;;;;;;6.43;1.95;;;17.90;55.40;;;;;;6243548;28;20098;-76
2021/08/28 06:16:49;;;;;;;2.53;1.60;;;17.90;55.50;;;;;;6229495;28;20367;-75
2021/08/28 06:19:54;;;;;;;11.95;2.22;;;17.90;55.50;;;;;;6219179;28;20112;-75
2021/08/28 06:22:55;;;;;;;5.95;2.13;;;18.00;55.50;;;;;;6241211;28;20047;-75
2021/08/28 06:26:01;;;;;;;2.30;1.40;;;18.00;55.40;;;;;;6228605;28;20111;-75
2021/08/28 06:29:04;;;;;;;3.03;1.75;;;18.00;55.40;;;;;;6228318;28;20029;-75
2021/08/28 06:32:06;;;;;;;3.95;1.50;;;18.00;55.30;;;;;;6220840;28;20128;-75
2021/08/28 06:35:07;;;;;;;4.60;2.13;;;18.00;55.30;;;;;;6244811;28;20112;-75
2021/08/28 06:38:12;;;;;;;5.13;1.90;;;18.00;55.20;;;;;;6227381;28;20351;-75
2021/08/28 06:41:31;;;;;;;4.13;1.95;;;18.10;55.20;;;;;;6240775;28;20037;-76
2021/08/28 06:44:51;;;;;;;3.25;2.00;;;18.10;55.20;;;;;;6239532;28;20434;-76
2021/08/28 06:48:08;;;;;;;7.60;1.77;;;18.20;55.20;;;;;;6233706;28;20056;-76
2021/08/28 06:51:27;;;;;;;2.97;2.00;;;18.20;55.10;;;;;;6239024;28;20124;-76
2021/08/28 06:54:47;;;;;;;7.78;1.73;;;18.30;55.00;;;;;;6233248;28;20049;-76
2021/08/28 06:58:06;;;;;;;4.95;1.90;;;18.30;55.00;;;;;;6255191;28;20049;-75
2021/08/28 07:01:27;;;;;;;3.50;2.13;;;18.40;54.80;;;;;;6268686;28;20454;-75
2021/08/28 07:04:46;;;;;;;2.85;1.60;;;18.50;54.60;;;;;;6242461;28;20038;-75
2021/08/28 07:07:55;;;;;;;2.72;1.83;;;18.70;54.40;;;;;;6229880;28;20060;-75
2021/08/28 07:10:56;;;;;;;5.05;1.80;;;18.80;54.10;;;;;;6243684;28;20041;-74
2021/08/28 07:13:57;;;;;;;4.70;2.08;;;18.90;53.70;;;;;;6243500;28;20410;-74
2021/08/28 07:16:58;;;;;;;3.50;2.08;;;19.10;53.50;;;;;;6244854;28;20034;-75
2021/08/28 07:19:59;;;;;;;1.67;1.42;;;19.20;53.00;;;;;;6243561;28;20489;-75
2021/08/28 07:23:00;;;;;;;2.17;1.50;;;19.40;52.70;;;;;;6222278;28;20120;-75
2021/08/28 07:26:20;;;;;;;3.55;1.95;;;19.50;52.40;;;;;;6217296;28;20050;-75
2021/08/28 07:29:34;;;;;;;4.40;1.30;;;19.70;51.90;;;;;;6227007;28;20438;-74
2021/08/28 07:32:36;;;;;;;3.53;1.75;;;19.90;51.50;;;;;;6226311;28;20030;-76
2021/08/28 07:35:37;;;;;;;2.88;1.60;;;20.00;51.10;;;;;;6226660;28;20030;-77
2021/08/28 07:38:38;;;;;;;1.73;1.30;;;20.10;50.40;;;;;;6240058;28;20048;-77
2021/08/28 07:41:39;;;;;;;3.80;2.00;;;20.20;50.10;;;;;;6228883;28;20120;-77
2021/08/28 07:44:40;;;;;;;5.07;1.60;;;20.90;50.20;;;;;;6225216;28;20034;-77
2021/08/28 07:47:41;;;;;;;2.08;1.35;;;20.40;49.50;;;;;;6247819;28;20099;-79
2021/08/28 07:50:42;;;;;;;5.35;1.88;;;20.50;49.00;;;;;;6247736;28;20482;-79
2021/08/28 07:53:43;;;;;;;4.63;1.75;;;20.60;48.80;;;;;;6231130;28;20049;-85
2021/08/28 07:56:47;;;;;;;2.80;1.38;;;20.60;48.70;;;;;;6233269;28;20053;-82
2021/08/28 07:59:48;;;;;;;2.60;1.75;;;20.70;48.50;;;;;;6252095;28;20179;-82
2021/08/28 08:02:49;;;;;;;5.22;2.03;;;20.80;48.60;;;;;;6227182;28;20057;-83
2021/08/28 08:06:09;;;;;;;3.85;1.75;;;20.90;48.30;;;;;;6245094;28;20068;-80
2021/08/28 08:09:29;;;;;;;12.73;2.05;;;21.00;48.00;;;;;;6248025;28;20033;-80
2021/08/28 08:13:05;;;;;;;5.88;1.65;;;21.20;47.90;;;;;;6201953;28;20090;-82
2021/08/28 08:16:24;;;;;;;2.03;1.42;;;21.40;47.30;;;;;;6186993;28;20046;-78
2021/08/28 08:19:43;;;;;;;11.70;2.00;;;21.60;46.70;;;;;;6182820;28;20133;-80
2021/08/28 08:23:16;;;;;;;2.17;1.40;;;21.80;46.10;;;;;;6080823;29;20546;-80
2021/08/28 08:26:42;;;;;;;2.28;1.35;;;21.90;45.70;;;;;;6087300;29;20112;-80
2021/08/28 08:30:12;;;;;;;2.17;1.33;;;22.10;45.30;;;;;;6101129;29;20474;-79
2021/08/28 08:33:22;;;;;;;6.38;1.20;;;22.10;45.00;;;;;;6099888;29;20375;-78
2021/08/28 08:36:28;;;;;;;2.85;1.48;;;22.20;44.90;;;;;;6114477;29;20044;-81
2021/08/28 08:39:28;;;;;;;3.08;1.80;;;22.20;44.80;;;;;;6077250;29;20040;-81
2021/08/28 08:42:31;;;;;;;4.50;1.45;;;22.40;44.70;;;;;;6090476;29;20314;-80
2021/08/28 08:45:33;;;;;;;3.47;2.20;;;22.50;44.40;;;;;;6090024;29;20044;-80
2021/08/28 08:48:36;;;;;;;5.03;1.55;;;22.60;44.10;;;;;;6107738;28;20040;-79
2021/08/28 08:51:37;;;;;;;1.50;1.30;;;22.70;44.00;;;;;;6084899;29;20406;-79
2021/08/28 08:54:40;;;;;;;3.53;1.55;;;22.70;44.10;;;;;;6083952;29;20095;-80
2021/08/28 08:57:42;;;;;;;2.47;1.52;;;22.80;44.20;;;;;;6110320;28;20041;-80
2021/08/28 09:00:43;;;;;;;3.03;1.42;;;22.90;44.00;;;;;;6178011;28;20070;-79
2021/08/28 09:04:01;;;;;;;;;;;23.00;43.70;;;;;;6206108;28;20382;-79
2021/08/28 09:07:04;;;;;;;1.40;1.15;;;23.10;43.60;;;;;;6238747;28;19913;-79
2021/08/28 09:10:05;;;;;;;1.73;1.23;;;23.30;43.40;;;;;;6262528;28;20438;-78
2021/08/28 09:13:15;;;;;;;2.42;1.58;;;23.30;43.10;;;;;;6202930;28;20053;-79
2021/08/28 09:16:32;;;;;;;2.33;1.40;;;23.40;43.00;;;;;;6220809;28;20428;-81
2021/08/28 09:19:42;;;;;;;3.13;1.80;;;23.50;42.80;;;;;;6225278;28;20539;-79
2021/08/28 09:22:43;;;;;;;7.18;1.48;;;23.60;42.50;;;;;;6255635;28;20067;-81
2021/08/28 09:25:52;;;;;;;5.13;1.80;;;23.60;42.60;;;;;;6242307;28;20036;-80
2021/08/28 09:28:57;;;;;;;3.20;1.35;;;23.70;42.50;;;;;;6244232;28;20041;-80
2021/08/28 09:32:00;;;;;;;2.35;1.60;;;23.80;42.40;;;;;;6241400;28;20183;-81
2021/08/28 09:35:08;;;;;;;4.78;1.50;;;23.80;42.20;;;;;;6242759;28;20040;-80
2021/08/28 09:38:12;;;;;;;2.05;1.40;;;23.80;42.00;;;;;;6243328;28;20450;-79
2021/08/28 09:41:13;;;;;;;4.63;1.88;;;23.80;42.10;;;;;;6244657;28;20064;-80
2021/08/28 09:44:20;;;;;;;1.45;1.17;;;23.90;42.00;;;;;;6249877;28;20033;-80
2021/08/28 09:47:26;;;;;;;2.45;1.35;;;23.90;41.70;;;;;;6255083;28;20048;-79
2021/08/28 09:50:36;;;;;;;3.13;1.50;;;24.00;41.50;;;;;;6265236;28;20076;-78
2021/08/28 09:53:38;;;;;;;2.67;1.70;;;23.90;41.30;;;;;;6237575;28;20041;-79
2021/08/28 09:56:41;;;;;;;2.47;1.52;;;23.90;41.50;;;;;;6245080;28;20029;-78
2021/08/28 09:59:43;;;;;;;3.50;1.50;;;23.90;41.50;;;;;;6228790;28;20052;-79
2021/08/28 10:03:03;;;;;;;1.70;1.17;;;23.90;41.50;;;;;;6224813;28;20052;-80
2021/08/28 10:06:04;;;;;;;2.55;1.38;;;23.90;41.40;;;;;;6240909;28;20068;-80
2021/08/28 10:09:05;;;;;;;4.65;1.15;;;23.80;41.20;;;;;;6247430;28;20042;-80
2021/08/28 10:12:07;;;;;;;2.72;1.20;;;23.80;41.30;;;;;;6214863;28;20026;-81
2021/08/28 10:15:09;;;;;;;4.50;1.35;;;23.80;41.30;;;;;;6246109;28;20030;-82
2021/08/28 10:18:11;;;;;;;2.63;1.50;;;23.90;41.40;;;;;;6245393;28;20049;-81
2021/08/28 10:21:13;;;;;;;2.55;1.33;;;24.00;41.40;;;;;;6250245;28;20033;-79
2021/08/28 10:24:15;;;;;;;2.55;1.30;;;24.10;41.10;;;;;;6229467;28;20048;-80
2021/08/28 10:27:16;;;;;;;4.93;1.20;;;24.20;40.70;;;;;;6245154;28;20048;-79
2021/08/28 10:30:20;;;;;;;1.80;1.20;;;24.30;40.40;;;;;;6227249;28;20041;-80
2021/08/28 10:33:21;;;;;;;3.90;1.50;;;24.30;40.30;;;;;;6244068;28;20331;-80
2021/08/28 10:36:22;;;;;;;1.38;1.17;;;24.30;40.00;;;;;;6244855;28;20030;-81
2021/08/28 10:39:25;;;;;;;2.38;1.27;;;24.40;39.70;;;;;;6240229;28;20053;-81
2021/08/28 10:42:30;;;;;;;1.73;1.02;;;24.50;39.80;;;;;;6244748;28;20435;-82
2021/08/28 10:45:34;;;;;;;4.38;1.40;;;24.50;39.40;;;;;;6242403;28;20454;-83
2021/08/28 10:49:06;;;;;;;4.68;1.50;;;24.60;39.20;;;;;;6212774;28;20042;-82
2021/08/28 10:52:17;;;;;;;2.30;1.40;;;24.90;38.80;;;;;;6204443;28;20048;-82
2021/08/28 10:55:18;;;;;;;1.30;1.20;;;25.30;38.30;;;;;;6240015;28;20044;-83
2021/08/28 10:58:22;;;;;;;1.85;1.17;;;25.30;38.10;;;;;;6245875;28;20343;-83
2021/08/28 11:01:49;;;;;;;2.92;1.50;;;25.50;37.80;;;;;;6244796;28;20033;-83
2021/08/28 11:04:50;;;;;;;3.25;1.50;;;25.80;37.60;;;;;;6220903;28;20041;-81
2021/08/28 11:07:51;;;;;;;2.03;1.13;;;26.10;37.00;;;;;;6234530;28;20065;-81
2021/08/28 11:11:27;;;;;;;2.95;1.35;;;26.50;36.30;;;;;;6244362;28;20049;-83
2021/08/28 11:14:44;;;;;;;2.10;1.13;;;26.80;35.80;;;;;;6246180;28;20041;-81
2021/08/28 11:17:46;;;;;;;1.38;1.08;;;27.10;35.10;;;;;;6227051;28;20181;-81
2021/08/28 11:20:51;;;;;;;3.10;1.33;;;27.20;34.80;;;;;;6231521;28;20181;-81
2021/08/28 11:23:53;;;;;;;4.95;1.45;;;27.40;34.50;;;;;;6214764;28;20359;-80
2021/08/28 11:26:56;;;;;;;3.25;1.13;;;27.80;34.20;;;;;;6232451;28;20045;-79
2021/08/28 11:29:57;;;;;;;3.13;1.40;;;28.00;33.80;;;;;;6248066;28;20029;-81
2021/08/28 11:33:02;;;;;;;1.95;1.40;;;28.10;33.40;;;;;;6246614;28;20026;-82
2021/08/28 11:36:22;;;;;;;2.85;1.92;;;28.40;33.40;;;;;;6248984;28;20021;-80
2021/08/28 11:39:23;;;;;;;2.42;1.20;;;28.00;33.20;;;;;;6227934;28;20038;-80
2021/08/28 11:42:25;;;;;;;1.38;1.27;;;28.10;33.50;;;;;;6245646;28;20037;-83
2021/08/28 11:45:41;;;;;;;8.45;1.50;;;28.00;33.30;;;;;;6245806;28;20906;-85
2021/08/28 11:48:45;;;;;;;4.43;1.50;;;27.90;33.40;;;;;;6237696;28;20069;-81
2021/08/28 11:51:46;;;;;;;3.97;1.40;;;28.10;33.40;;;;;;6249735;28;20041;-81
2021/08/28 11:54:47;;;;;;;2.05;1.30;;;28.30;32.90;;;;;;6233976;28;20041;-80
2021/08/28 11:58:12;;;;;;;4.03;1.50;;;28.60;32.40;;;;;;6209684;28;20038;-78
2021/08/28 12:01:23;;;;;;;3.03;1.17;;;28.70;31.90;;;;;;6246913;28;20037;-78
2021/08/28 12:04:23;;;;;;;1.23;1.00;;;29.10;31.30;;;;;;6249468;28;20060;-79
2021/08/28 12:07:24;;;;;;;2.25;1.25;;;29.40;31.00;;;;;;6241931;28;20026;-79
2021/08/28 12:10:26;;;;;;;4.25;1.40;;;29.70;30.80;;;;;;6242949;28;20421;-79
2021/08/28 12:13:27;;;;;;;2.65;1.42;;;30.00;30.00;;;;;;6233555;28;20604;-81
2021/08/28 12:16:32;;;;;;;1.77;0.95;;;30.10;29.70;;;;;;6246537;28;20049;-78
2021/08/28 12:19:35;;;;;;;1.77;0.90;;;30.10;29.40;;;;;;6248308;28;20103;-79
2021/08/28 12:22:35;;;;;;;2.75;1.35;;;29.80;29.60;;;;;;6225720;28;20567;-77
2021/08/28 12:25:36;;;;;;;4.38;0.95;;;29.40;29.90;;;;;;6237424;28;20033;-78
2021/08/28 12:28:37;;;;;;;2.15;1.10;;;29.20;30.20;;;;;;6246861;28;20410;-79
2021/08/28 12:31:39;;;;;;;3.67;1.10;;;28.80;30.30;;;;;;6248133;28;20370;-80
2021/08/28 12:34:44;;;;;;;1.17;0.93;;;28.30;31.00;;;;;;6246668;28;20110;-79
2021/08/28 12:37:45;;;;;;;1.95;1.00;;;27.90;31.70;;;;;;6229219;28;20139;-80
2021/08/28 12:40:46;;;;;;;2.40;1.20;;;27.60;32.10;;;;;;6232303;28;20034;-78
2021/08/28 12:43:47;;;;;;;1.92;1.05;;;27.40;32.50;;;;;;6250999;28;20485;-80
2021/08/28 12:46:50;;;;;;;0.98;0.98;;;27.30;32.70;;;;;;6246802;28;20057;-81
2021/08/28 12:49:52;;;;;;;2.00;1.00;;;27.10;33.00;;;;;;6248036;28;20073;-80
2021/08/28 12:53:04;;;;;;;1.35;0.98;;;27.10;33.10;;;;;;6248270;28;20369;-80
2021/08/28 12:56:06;;;;;;;3.72;1.55;;;27.40;33.40;;;;;;6230039;28;20040;-80
2021/08/28 12:59:18;;;;;;;1.45;1.08;;;27.70;32.30;;;;;;6246347;28;20565;-81
2021/08/28 13:02:27;;;;;;;1.92;0.93;;;27.90;32.10;;;;;;6225848;28;20045;-78
2021/08/28 13:05:31;;;;;;;1.55;1.00;;;28.30;31.70;;;;;;6230259;28;20033;-78
2021/08/28 13:08:34;;;;;;;1.77;0.90;;;29.00;30.80;;;;;;6228821;28;20049;-78
2021/08/28 13:11:34;;;;;;;4.75;1.08;;;29.90;29.80;;;;;;6246441;28;20116;-79
2021/08/28 13:14:49;;;;;;;0.90;0.82;;;30.20;29.10;;;;;;6247037;28;20118;-78
2021/08/28 13:17:52;;;;;;;5.07;0.90;;;30.00;29.10;;;;;;6229663;28;20095;-79
2021/08/28 13:20:57;;;;;;;1.10;1.00;;;30.70;28.60;;;;;;6245030;28;20038;-79
2021/08/28 13:24:11;;;;;;;2.75;1.25;;;31.50;27.80;;;;;;6228798;28;20075;-79
2021/08/28 13:27:12;;;;;;;2.70;0.93;;;31.20;27.70;;;;;;6228689;28;20052;-79
2021/08/28 13:30:22;;;;;;;1.10;0.90;;;30.90;28.10;;;;;;6229646;28;20458;-79
2021/08/28 13:33:26;;;;;;;2.25;0.98;;;31.40;28.00;;;;;;6242185;28;20037;-79
2021/08/28 13:36:28;;;;;;;3.58;0.82;;;32.20;26.70;;;;;;6245257;28;20039;-80
2021/08/28 13:39:29;;;;;;;1.05;0.80;;;32.10;26.90;;;;;;6246634;28;22414;-76
2021/08/28 13:42:30;;;;;;;2.20;1.00;;;32.00;27.10;;;;;;6247987;28;20220;-78
2021/08/28 13:45:32;;;;;;;1.52;1.00;;;31.50;27.60;;;;;;6254477;28;20053;-79
2021/08/28 13:48:33;;;;;;;1.08;0.85;;;31.30;28.10;;;;;;6248328;28;20095;-78
2021/08/28 13:51:34;;;;;;;2.92;0.75;;;31.90;28.00;;;;;;6246712;28;20033;-79
2021/08/28 13:54:35;;;;;;;1.02;0.80;;;32.40;26.70;;;;;;6245517;28;20037;-79
2021/08/28 13:57:36;;;;;;;1.90;1.05;;;32.60;26.80;;;;;;6229260;28;20485;-79
2021/08/28 14:00:38;;;;;;;1.85;0.70;;;33.40;26.30;;;;;;6246894;28;20470;-80
2021/08/28 14:03:39;;;;;;;1.00;0.70;;;34.10;25.70;;;;;;6244711;28;20036;-80
2021/08/28 14:06:40;;;;;;;1.02;0.82;;;34.60;24.90;;;;;;6226868;28;20091;-80
2021/08/28 14:09:41;;;;;;;4.53;1.02;;;34.00;25.30;;;;;;6228901;28;20175;-81
2021/08/28 14:12:42;;;;;;;4.13;0.70;;;33.60;25.70;;;;;;6210755;28;20037;-80
2021/08/28 14:15:43;;;;;;;4.30;0.95;;;32.70;26.70;;;;;;6248066;28;20366;-81
2021/08/28 14:18:44;;;;;;;3.58;0.70;;;31.70;27.70;;;;;;6230234;28;20056;-80
2021/08/28 14:21:45;;;;;;;2.22;0.73;;;30.80;28.60;;;;;;6246239;28;20037;-80
2021/08/28 14:24:46;;;;;;;2.17;0.85;;;30.20;29.30;;;;;;6245343;28;20053;-80
2021/08/28 14:27:47;;;;;;;3.33;0.88;;;29.70;30.00;;;;;;6248170;28;20474;-79
2021/08/28 14:30:49;;;;;;;1.20;0.70;;;29.40;30.60;;;;;;6246407;28;20349;-78
2021/08/28 14:33:50;;;;;;;2.85;0.82;;;29.00;31.40;;;;;;6249224;28;20067;-79
2021/08/28 14:36:52;;;;;;;1.13;0.82;;;28.70;32.00;;;;;;6245556;28;20036;-79
2021/08/28 14:39:53;;;;;;;1.50;0.98;;;28.50;32.50;;;;;;6241433;28;20041;-80
2021/08/28 14:42:53;;;;;;;0.77;0.60;;;28.40;33.70;;;;;;6233435;28;20054;-77
2021/08/28 14:45:54;;;;;;;1.30;0.90;;;28.30;33.30;;;;;;6244083;28;20073;-81
2021/08/28 14:48:55;;;;;;;9.07;0.95;;;28.20;33.30;;;;;;6236878;28;20109;-81
2021/08/28 14:51:56;;;;;;;0.85;0.73;;;28.20;33.50;;;;;;6224400;28;20466;-81
2021/08/28 14:54:57;;;;;;;2.35;0.90;;;28.10;33.70;;;;;;6249423;28;20040;-81
2021/08/28 14:57:58;;;;;;;2.22;0.85;;;28.10;33.90;;;;;;6249651;28;20041;-80
2021/08/28 15:01:01;;;;;;;1.10;0.80;;;27.90;34.10;;;;;;6231128;28;20087;-79
2021/08/28 15:04:03;;;;;;;2.42;1.23;;;27.80;34.50;;;;;;6248241;28;20045;-81
2021/08/28 15:07:04;;;;;;;1.83;0.93;;;27.70;34.90;;;;;;6249641;28;20106;-78
2021/08/28 15:10:05;;;;;;;2.95;0.93;;;27.60;35.00;;;;;;6249211;28;20517;-79
2021/08/28 15:13:06;;;;;;;1.50;0.90;;;27.50;35.20;;;;;;6248919;28;20034;-79
2021/08/28 15:16:07;;;;;;;0.80;0.63;;;27.40;35.40;;;;;;6245513;28;20040;-81
2021/08/28 15:19:08;;;;;;;1.90;1.10;;;27.30;35.50;;;;;;6247767;28;20037;-81
2021/08/28 15:22:10;;;;;;;7.10;0.95;;;27.30;35.70;;;;;;6248646;28;20445;-80
2021/08/28 15:25:11;;;;;;;0.95;0.80;;;27.40;35.60;;;;;;6247521;28;20045;-81
2021/08/28 15:28:12;;;;;;;3.30;0.90;;;27.30;35.40;;;;;;6252117;28;20333;-81
2021/08/28 15:31:13;;;;;;;2.42;0.95;;;27.30;35.60;;;;;;6236377;28;20144;-80
2021/08/28 15:34:15;;;;;;;6.22;0.85;;;27.30;35.90;;;;;;6230563;28;20041;-81
2021/08/28 15:37:15;;;;;;;1.90;0.90;;;27.20;36.00;;;;;;6232510;28;20120;-82
2021/08/28 15:40:16;;;;;;;2.05;0.80;;;27.20;36.10;;;;;;6231506;28;20323;-80
2021/08/28 15:43:18;;;;;;;4.65;1.08;;;27.20;36.10;;;;;;6248545;28;20052;-80
2021/08/28 15:46:19;;;;;;;2.53;1.25;;;27.20;36.00;;;;;;6230872;28;20041;-78
2021/08/28 15:49:22;;;;;;;0.95;0.80;;;27.30;36.00;;;;;;6226536;28;22690;-79
2021/08/28 15:52:25;;;;;;;4.22;0.90;;;27.30;36.00;;;;;;6239598;28;20043;-80
2021/08/28 15:55:26;;;;;;;3.38;1.00;;;27.30;36.00;;;;;;6244793;28;20030;-82
2021/08/28 15:58:28;;;;;;;1.30;0.90;;;27.40;36.00;;;;;;6236663;28;20037;-81
2021/08/28 16:01:29;;;;;;;3.10;0.80;;;28.00;35.50;;;;;;6247069;28;20092;-83
2021/08/28 16:04:30;;;;;;;2.25;0.70;;;29.30;33.20;;;;;;6244650;28;20470;-81
2021/08/28 16:07:31;;;;;;;8.30;1.13;;;30.70;31.20;;;;;;6242174;28;20033;-81